ADDS METAR Data INFO
IDs: Format: Raw Decoded Include TAF

Data at: 0336 UTC 19 Feb 2018

KISM 190256Z AUTO 10006KT 10SM CLR 21/19 A3028 RMK AO2 SLP256 T02060194 51015
KISM 190156Z 08008KT 10SM SCT070 21/19 A3028 RMK AO2 SLP254 T02110189
KISM 190056Z 08011KT 10SM BKN070 22/19 A3026 RMK AO2 SLP249 T02220189
KISM 182256Z 09011KT 10SM CLR 25/17 A3022 RMK AO2 WSHFT 2155 SLP236 T02500167
KISM 182215Z 08015KT 10SM BKN070 27/16 A3020 RMK AO2 WSHFT 2155
KISM 182156Z 08011G14KT 10SM CLR 29/14 A3019 RMK AO2 SLP226 T02890139
KISM 182056Z VRB04KT 10SM CLR 29/13 A3019 RMK AO2 SLP226 T02890128 56011
KISM 181956Z 08005KT 10SM CLR 28/13 A3019 RMK AO2 SLP226 T02830128
KISM 181856Z 08008KT 10SM CLR 29/12 A3020 RMK AO2 SLP230 T02890122
KISM 181756Z 00000KT 10SM CLR 27/15 A3022 RMK AO2 SLP236 T02720150 10278 20139 58014
KISM 181656Z VRB03KT 10SM CLR 27/14 A3025 RMK AO2 SLP246 T02720144
KISM 181556Z VRB04KT 10SM CLR 26/14 A3027 RMK AO2 SLP253 T02560144
KISM 181456Z 00000KT 10SM CLR 23/15 A3027 RMK AO2 SLP250 T02330150 53015
KISM 181356Z 18003KT 10SM CLR 21/15 A3025 RMK AO2 SLP244 T02060150
KISM 181256Z 00000KT 10SM CLR 16/14 A3023 RMK AO2 SLP238 T01560144
KISM 181156Z 00000KT 10SM CLR 14/13 A3022 RMK AO2 SLP236 T01390133 10167 20133 53007
KISM 181056Z AUTO 00000KT 10SM CLR 14/14 A3021 RMK AO2 SLP232 T01440139
KISM 180956Z AUTO 00000KT 10SM CLR 14/13 A3020 RMK AO2 SLP229 T01440133
KISM 180856Z AUTO 00000KT 10SM CLR 14/13 A3020 RMK AO2 SLP229 T01390133 58004
KISM 180756Z AUTO 00000KT 10SM CLR 15/14 A3021 RMK AO2 SLP232 T01500139
KISM 180656Z AUTO 00000KT 10SM CLR 17/14 A3021 RMK AO2 SLP230 T01670144
KISM 180556Z AUTO 27003KT 10SM CLR 17/14 A3021 RMK AO2 SLP232 T01670144 10244 20161 56009
KISM 180456Z AUTO 00000KT 10SM CLR 17/14 A3022 RMK AO2 SLP234 T01720144 402890144
KISM 180356Z AUTO 35003KT 10SM CLR 20/14 A3023 RMK AO2 SLP238 T02000144
KISM 180256Z 32005KT 10SM CLR 20/14 A3024 RMK AO2 SLP241 T02000144 51013
KISM 180156Z 29005KT 10SM CLR 21/14 A3023 RMK AO2 SLP237 T02110144
KISM 180056Z 29007KT 10SM CLR 23/13 A3021 RMK AO2 SLP233 T02330133
KISM 172356Z 29006KT 10SM FEW060 24/13 A3020 RMK AO2 SLP228 T02440133 10289 20244 51015
KISM 172256Z 28003KT 10SM CLR 27/14 A3019 RMK AO2 SLP223 T02670139
KISM 172156Z 25009KT 10SM CLR 28/13 A3017 RMK AO2 SLP219 T02780133
KISM 172056Z 24012KT 10SM CLR 28/14 A3015 RMK AO2 SLP212 T02830144 55013
KISM 171956Z 25011KT 10SM CLR 29/14 A3015 RMK AO2 SLP210 T02890139
KISM 171856Z 24012G17KT 10SM BKN048 28/14 A3016 RMK AO2 SLP214 T02780144
KISM 171756Z 22003KT 10SM CLR 27/16 A3019 RMK AO2 SLP225 60000 T02670161 10267 20167 58017
KISM 171656Z 18005KT 10SM CLR 25/17 A3022 RMK AO2 SLP236 T02500167
KISM 171556Z 00000KT 10SM SCT013 22/18 A3024 RMK AO2 SLP243 T02220178